»·PEaware :: N54102 KLAX-KSNA

N54102 :: KLAX-KSNA

FLIGHT INFORMATION

Flight Status: Arrived
Operator: Privately registered:
United States
More flights under this callsign
Pilot: Matthew T. (18767)
Aircraft: CESSNA 172 SKYHAWK
(C172)
More flights by this aircraft type
Origin: KLAX Los Angeles Intl
United States
Destination: KSNA John Wayne-Orange Co
United States
More flights between these airports :: More routes between these airports
Route: SLI8 SLI
File this flight plan on PilotEdge
Remarks: I6 full ILS APPROACH
Altitude:
(Current/Filed)
4,000ft
Speed:
(Current/Filed)
110kts
Departed: 29-Nov-18 01:30 PM
Arrived: 29-Nov-18 02:19 PM
Distance/Time
Traveled:
31nm/0:49
Distance/Time
To Go:
Arrived

Flight Plot

Page will automatically refresh every two minutes.

Flight plan parsing failed; only flown route is shown


Map Options




Map Legend


Flown Route
Filed Route
Departure Airport
Arrival Airport
Navaid (VOR, NDB)
Fix

Horizontal Profiles

Position Reports

Time Latitude Longitude Heading Altitude Ground
Speed
29-Nov-18 13:10 33.932737 -118.399114 21 114ft 0kts
29-Nov-18 13:11 33.932737 -118.399114 21 114ft 0kts
29-Nov-18 13:12 33.932737 -118.399114 21 114ft 0kts
29-Nov-18 13:13 33.932737 -118.399114 21 114ft 0kts
29-Nov-18 13:14 33.932737 -118.399114 21 114ft 0kts
29-Nov-18 13:15 33.932737 -118.399114 21 114ft 0kts
29-Nov-18 13:16 33.932737 -118.399114 21 114ft 0kts
29-Nov-18 13:17 33.932737 -118.399114 21 114ft 0kts
29-Nov-18 13:18 33.932737 -118.399114 21 114ft 0kts
29-Nov-18 13:19 33.932737 -118.399114 21 114ft 0kts
29-Nov-18 13:20 33.932737 -118.399114 21 114ft 0kts
29-Nov-18 13:21 33.932737 -118.399114 21 114ft 0kts
29-Nov-18 13:22 33.932737 -118.399114 21 114ft 0kts
29-Nov-18 13:23 33.932737 -118.399114 21 114ft 0kts
29-Nov-18 13:24 33.932737 -118.399114 21 114ft 0kts
29-Nov-18 13:25 33.932737 -118.399114 21 114ft 0kts
29-Nov-18 13:26 33.932737 -118.399114 21 114ft 0kts
29-Nov-18 13:27 33.932737 -118.399114 21 114ft 0kts
29-Nov-18 13:28 33.932737 -118.399114 21 114ft 0kts
29-Nov-18 13:29 33.934708 -118.396594 81 108ft 18kts
29-Nov-18 13:30 33.935497 -118.388866 82 98ft 24kts
29-Nov-18 13:31 33.936364 -118.382840 36 95ft 0kts
29-Nov-18 13:32 33.936408 -118.382810 24 95ft 2kts
29-Nov-18 13:33 33.936165 -118.394957 264 416ft 68kts
29-Nov-18 13:34 33.933136 -118.418547 260 1300ft 77kts
29-Nov-18 13:35 33.927405 -118.444306 217 2104ft 87kts
29-Nov-18 13:36 33.905470 -118.456979 211 2909ft 87kts
29-Nov-18 13:37 33.882592 -118.461146 171 3701ft 93kts
29-Nov-18 13:38 33.856500 -118.450472 171 4016ft 104kts
29-Nov-18 13:39 33.829079 -118.439686 171 4018ft 103kts
29-Nov-18 13:40 33.801712 -118.429010 171 4021ft 103kts
29-Nov-18 13:41 33.774618 -118.418210 157 4019ft 107kts
29-Nov-18 13:42 33.753259 -118.391569 142 4027ft 110kts
29-Nov-18 13:43 33.732189 -118.364657 142 4036ft 110kts
29-Nov-18 13:44 33.711088 -118.337716 142 4036ft 111kts
29-Nov-18 13:45 33.689941 -118.310815 142 4036ft 110kts
29-Nov-18 13:46 33.668569 -118.284199 142 4035ft 110kts
29-Nov-18 13:47 33.647058 -118.258153 142 4034ft 109kts
29-Nov-18 13:48 33.625367 -118.232672 142 4033ft 109kts
29-Nov-18 13:49 33.603402 -118.207705 142 4032ft 108kts
29-Nov-18 13:50 33.604748 -118.174237 30 4025ft 116kts
29-Nov-18 13:51 33.633682 -118.157998 27 4030ft 115kts
29-Nov-18 13:52 33.661605 -118.139279 28 4029ft 115kts
29-Nov-18 13:53 33.689201 -118.120222 29 4029ft 114kts
29-Nov-18 13:54 33.716780 -118.101076 29 4028ft 114kts
29-Nov-18 13:55 33.744155 -118.082040 29 4027ft 113kts
29-Nov-18 13:56 33.770755 -118.061950 57 4025ft 113kts
29-Nov-18 13:57 33.784968 -118.029075 68 4022ft 112kts
29-Nov-18 13:58 33.802218 -117.997503 53 4027ft 114kts
29-Nov-18 13:59 33.820870 -117.966160 60 4027ft 116kts
29-Nov-18 14:00 33.837748 -117.932653 60 4026ft 118kts
29-Nov-18 14:01 33.852221 -117.896799 68 3998ft 123kts
29-Nov-18 14:02 33.866050 -117.858736 67 3992ft 124kts
29-Nov-18 14:03 33.879838 -117.820330 67 3992ft 125kts
29-Nov-18 14:04 33.893176 -117.781627 67 3997ft 124kts
29-Nov-18 14:05 33.906149 -117.743061 67 3998ft 123kts
29-Nov-18 14:06 33.923425 -117.709322 28 3999ft 118kts
29-Nov-18 14:07 33.950909 -117.687322 28 4002ft 119kts
29-Nov-18 14:08 33.976102 -117.687830 274 3997ft 93kts
29-Nov-18 14:09 33.954179 -117.692498 166 4002ft 107kts
29-Nov-18 14:10 33.927763 -117.701869 214 3891ft 105kts
29-Nov-18 14:11 33.901087 -117.718385 205 3589ft 111kts
29-Nov-18 14:12 33.874279 -117.733311 226 3496ft 99kts
29-Nov-18 14:13 33.853377 -117.753928 211 3498ft 97kts
29-Nov-18 14:14 33.828367 -117.770670 216 3211ft 108kts
29-Nov-18 14:15 33.803265 -117.789463 207 2771ft 103kts
29-Nov-18 14:16 33.778929 -117.802250 212 2274ft 86kts
29-Nov-18 14:17 33.759066 -117.815999 207 1766ft 80kts
29-Nov-18 14:18 33.739013 -117.828146 207 1359ft 82kts
29-Nov-18 14:19 33.719286 -117.841481 209 937ft 82kts
29-Nov-18 14:20 33.702336 -117.852002 209 527ft 81kts
29-Nov-18 14:21 33.682688 -117.864448 209 107ft 59kts
29-Nov-18 14:22 33.677331 -117.866617 119 44ft 0kts
29-Nov-18 14:23 33.677331 -117.866617 119 44ft 0kts
29-Nov-18 14:24 33.677331 -117.866617 119 44ft 0kts
29-Nov-18 14:25 33.677303 -117.866553 120 44ft 5kts

Navigation Log

Ident Type
Flight plan parsing failed, navigation log unavailable